Brasie Corners, New York
Current Conditions -  °F | °C
As of 10:58 PM on Tuesday 25 Nov 2014 (Local Time) from KGTB Reporting Station
Broken Clouds Broken Clouds  
Wind Chill: 26°   Ceiling: 5000
Heat Index: 35°   Visibility: 10mi
Dew Point: 24°   Wind: 12mph
Humidity: 66%   Direction: 280°W
Pressure: 30.14"   Gusts: 22mph
Location:  44.3309°N, 75.4775°W
Report Text: KGTB 260358Z AUTO 28010G19KT 10SM BKN050 01/M04 A3014 RMK AO2 SLP213 T00141043
Loading
Personal Weather Stations






























Interactive Weather Map New forecast layout! Learn more

10-Day Weather Forecast

Advertisements
Track Severe Weather on mobile